Time;durP1;ratioP1;P1;durP2;ratioP2;P2;SDS_P1;SDS_P2;PMS_P1;PMS_P2;Temp;Humidity;BMP_temperature;BMP_pressure;BME280_temperature;BME280_humidity;BME280_pressure;Samples;Min_cycle;Max_cycle;Signal;HPM_P1;HPM_P2
2023/11/10 00:00:11;;;;;;;1.90;1.80;;;10.70;99.90;;;;;;5037678;28;20192;-84
2023/11/10 00:02:38;;;;;;;2.28;2.03;;;10.00;99.90;;;;;;5020478;28;20839;-84
2023/11/10 00:05:05;;;;;;;3.03;1.75;;;10.20;99.90;;;;;;5023238;28;20202;-85
2023/11/10 00:07:31;;;;;;;1.70;1.60;;;10.10;99.90;;;;;;5020817;28;20266;-85
2023/11/10 00:09:56;;;;;;;2.10;1.90;;;10.50;99.90;;;;;;5016642;28;20619;-85
2023/11/10 00:12:22;;;;;;;2.20;2.00;;;10.10;99.90;;;;;;5019793;28;20222;-84
2023/11/10 00:14:47;;;;;;;2.10;2.00;;;10.20;99.90;;;;;;5016870;28;20286;-85
2023/11/10 00:17:13;;;;;;;1.83;1.73;;;10.10;99.90;;;;;;5021961;28;20333;-85
2023/11/10 00:19:41;;;;;;;2.30;1.70;;;9.80;99.90;;;;;;5020704;28;21722;-85
2023/11/10 00:22:09;;;;;;;1.83;1.73;;;9.80;99.90;;;;;;5022125;28;20187;-85
2023/11/10 00:24:45;;;;;;;1.88;1.45;;;10.20;99.90;;;;;;5017937;28;20206;-85
2023/11/10 00:27:13;;;;;;;1.30;1.20;;;9.40;99.90;;;;;;5016778;28;20293;-85
2023/11/10 00:29:42;;;;;;;1.98;1.30;;;10.00;99.90;;;;;;5017234;28;20176;-85
2023/11/10 00:32:12;;;;;;;1.80;1.23;;;10.50;99.90;;;;;;5021044;28;20277;-85
2023/11/10 00:34:38;;;;;;;1.67;1.20;;;10.40;99.90;;;;;;5018650;28;20202;-85
2023/11/10 00:37:04;;;;;;;1.30;1.20;;;9.60;99.90;;;;;;5038343;28;20187;-85
2023/11/10 00:39:33;;;;;;;1.33;1.23;;;10.20;99.90;;;;;;5038810;28;20198;-85
2023/11/10 00:41:59;;;;;;;1.63;1.27;;;9.60;99.90;;;;;;5024775;28;20220;-85
2023/11/10 00:44:27;;;;;;;2.33;1.30;;;9.50;99.90;;;;;;5028143;28;20210;-85
2023/11/10 00:46:53;;;;;;;1.20;1.10;;;10.00;99.90;;;;;;5030594;28;20264;-85
2023/11/10 00:49:18;;;;;;;1.10;1.00;;;9.80;99.90;;;;;;5028653;28;20181;-85
2023/11/10 00:51:44;;;;;;;1.33;1.23;;;10.40;99.90;;;;;;5043858;28;20461;-85
2023/11/10 00:54:10;;;;;;;0.90;0.80;;;10.00;99.90;;;;;;5032649;28;20221;-85
2023/11/10 00:56:36;;;;;;;1.13;0.90;;;9.90;99.90;;;;;;5027267;28;20195;-85
2023/11/10 00:59:02;;;;;;;1.63;1.02;;;9.90;99.90;;;;;;5025934;28;20273;-85
2023/11/10 01:01:28;;;;;;;1.20;0.90;;;10.20;99.90;;;;;;5041658;28;20238;-85
2023/11/10 01:03:58;;;;;;;1.17;0.97;;;9.50;99.90;;;;;;5040426;28;20215;-85
2023/11/10 01:06:24;;;;;;;1.17;1.08;;;9.80;99.90;;;;;;5040594;28;20190;-85
2023/11/10 01:08:50;;;;;;;2.25;1.20;;;9.70;99.90;;;;;;5041087;28;20364;-84
2023/11/10 01:11:15;;;;;;;1.73;1.40;;;10.30;99.90;;;;;;5038454;28;20206;-85
2023/11/10 01:13:41;;;;;;;1.30;1.10;;;10.20;99.90;;;;;;5056035;28;20230;-85
2023/11/10 01:16:07;;;;;;;1.10;1.00;;;9.50;99.90;;;;;;5031345;28;20584;-84
2023/11/10 01:18:33;;;;;;;1.27;1.17;;;9.30;99.90;;;;;;5024972;28;20184;-84
2023/11/10 01:20:59;;;;;;;1.33;1.23;;;9.90;99.90;;;;;;5027414;28;21068;-85
2023/11/10 01:23:25;;;;;;;1.60;1.10;;;9.90;99.90;;;;;;5021689;28;20210;-84
2023/11/10 01:25:51;;;;;;;1.45;1.35;;;9.70;99.90;;;;;;5023144;28;20234;-84
2023/11/10 01:28:18;;;;;;;1.57;1.03;;;9.80;99.90;;;;;;5021215;28;20282;-84
2023/11/10 01:30:44;;;;;;;2.35;1.40;;;9.30;99.90;;;;;;5015914;28;20198;-85
2023/11/10 01:33:10;;;;;;;1.58;1.30;;;9.40;99.90;;;;;;5022627;28;20207;-85
2023/11/10 01:35:35;;;;;;;1.97;1.30;;;9.50;99.90;;;;;;5016717;28;20236;-86
2023/11/10 01:38:01;;;;;;;1.90;1.30;;;9.10;99.90;;;;;;5021972;28;20186;-84
2023/11/10 01:40:28;;;;;;;1.40;1.30;;;9.00;99.90;;;;;;5022159;28;20262;-85
2023/11/10 01:42:54;;;;;;;1.50;1.40;;;9.20;99.90;;;;;;5020245;28;21079;-85
2023/11/10 01:45:19;;;;;;;2.00;1.80;;;9.10;99.90;;;;;;5021143;28;20210;-88
2023/11/10 01:47:46;;;;;;;1.37;1.27;;;9.00;99.90;;;;;;5019604;28;20186;-88
2023/11/10 01:50:13;;;;;;;1.05;0.95;;;9.00;99.90;;;;;;5020322;28;20175;-87
2023/11/10 01:52:41;;;;;;;1.80;1.55;;;9.00;99.90;;;;;;5018914;28;20293;-89
2023/11/10 01:55:11;;;;;;;1.20;1.10;;;9.20;99.90;;;;;;5010139;28;20351;-88
2023/11/10 01:57:38;;;;;;;1.40;1.30;;;9.10;99.90;;;;;;5012542;28;20627;-88
2023/11/10 02:00:05;;;;;;;2.40;1.40;;;9.10;99.90;;;;;;5013865;28;20244;-88
2023/11/10 02:02:31;;;;;;;1.38;1.10;;;9.20;99.90;;;;;;5014229;28;20281;-88
2023/11/10 02:04:57;;;;;;;1.45;1.08;;;9.20;99.90;;;;;;5017701;28;20206;-88
2023/11/10 02:07:23;;;;;;;1.93;1.00;;;9.20;99.90;;;;;;5014741;28;20201;-90
2023/11/10 02:09:49;;;;;;;0.83;0.83;;;9.20;99.90;;;;;;5015781;28;20180;-88
2023/11/10 02:12:14;;;;;;;1.27;1.07;;;9.40;99.90;;;;;;5018516;28;20440;-89
2023/11/10 02:14:40;;;;;;;0.97;0.90;;;9.70;99.90;;;;;;5012593;28;20287;-88
2023/11/10 02:17:06;;;;;;;1.45;1.35;;;9.60;99.90;;;;;;5015560;28;20273;-86
2023/11/10 02:19:33;;;;;;;0.80;0.75;;;9.50;99.90;;;;;;5014531;28;20190;-86
2023/11/10 02:21:58;;;;;;;0.90;0.70;;;9.80;99.90;;;;;;5020135;28;20192;-85
2023/11/10 02:24:25;;;;;;;0.90;0.90;;;9.80;99.90;;;;;;5019243;28;20215;-86
2023/11/10 02:26:51;;;;;;;0.98;0.82;;;9.50;99.90;;;;;;5011761;28;20278;-84
2023/11/10 02:29:17;;;;;;;1.30;0.90;;;9.70;99.90;;;;;;5015962;28;20214;-85
2023/11/10 02:31:42;;;;;;;1.40;0.73;;;9.40;99.90;;;;;;5017651;28;20627;-84
2023/11/10 02:34:08;;;;;;;1.20;1.10;;;9.80;99.90;;;;;;5020995;28;20811;-84
2023/11/10 02:36:34;;;;;;;0.90;0.80;;;9.50;99.90;;;;;;5013575;28;20182;-86
2023/11/10 02:38:59;;;;;;;0.80;0.70;;;9.80;99.90;;;;;;5014662;28;20218;-85
2023/11/10 02:41:25;;;;;;;0.77;0.77;;;9.70;99.90;;;;;;5032355;28;20559;-86
2023/11/10 02:43:51;;;;;;;0.93;0.87;;;9.70;99.90;;;;;;5029661;28;20246;-85
2023/11/10 02:46:16;;;;;;;1.30;1.20;;;9.30;99.90;;;;;;5017450;28;20187;-85
2023/11/10 02:48:42;;;;;;;1.20;1.10;;;10.30;99.90;;;;;;5015331;28;20657;-86
2023/11/10 02:51:07;;;;;;;1.40;1.20;;;10.00;99.90;;;;;;5012085;28;20188;-86
2023/11/10 02:53:33;;;;;;;1.00;0.80;;;9.80;99.90;;;;;;5012970;28;20203;-85
2023/11/10 02:56:01;;;;;;;0.80;0.80;;;10.10;99.90;;;;;;5015118;28;20194;-86
2023/11/10 02:58:26;;;;;;;1.63;0.90;;;9.90;99.90;;;;;;5012594;28;20219;-86
2023/11/10 03:00:53;;;;;;;1.17;0.87;;;10.40;99.90;;;;;;5031612;28;20214;-86
2023/11/10 03:03:19;;;;;;;0.75;0.70;;;9.90;99.90;;;;;;5014391;28;20523;-86
2023/11/10 03:05:44;;;;;;;0.80;0.70;;;9.70;99.90;;;;;;5015713;28;20751;-86
2023/11/10 03:08:10;;;;;;;1.10;0.97;;;9.60;99.90;;;;;;5014651;28;20289;-85
2023/11/10 03:10:35;;;;;;;1.67;1.00;;;10.30;99.90;;;;;;5018378;28;20179;-84
2023/11/10 03:13:02;;;;;;;0.80;0.77;;;9.60;99.90;;;;;;5014059;28;20260;-84
2023/11/10 03:15:28;;;;;;;0.95;0.85;;;9.40;99.90;;;;;;5015453;28;20209;-84
2023/11/10 03:17:55;;;;;;;0.90;0.80;;;9.70;99.90;;;;;;5018296;28;20257;-85
2023/11/10 03:20:20;;;;;;;0.90;0.70;;;10.00;99.90;;;;;;5029582;28;20191;-85
2023/11/10 03:22:47;;;;;;;0.90;0.80;;;9.60;99.90;;;;;;5033124;28;20183;-85
2023/11/10 03:25:12;;;;;;;2.78;0.70;;;9.70;99.90;;;;;;5015972;28;20266;-85
2023/11/10 03:27:38;;;;;;;0.80;0.70;;;9.70;99.90;;;;;;5032802;28;20561;-85
2023/11/10 03:30:04;;;;;;;1.40;0.85;;;10.00;99.90;;;;;;5016223;28;20201;-85
2023/11/10 03:32:32;;;;;;;1.50;0.68;;;9.50;99.90;;;;;;5013410;28;20270;-85
2023/11/10 03:34:57;;;;;;;0.73;0.73;;;9.40;99.90;;;;;;5029643;23;20215;-87
2023/11/10 03:37:23;;;;;;;0.60;0.50;;;9.40;99.90;;;;;;5028835;28;20669;-86
2023/11/10 03:39:49;;;;;;;0.80;0.80;;;9.90;99.90;;;;;;5034980;28;20179;-86
2023/11/10 03:42:15;;;;;;;0.68;0.50;;;9.50;99.90;;;;;;5033329;28;20183;-86
2023/11/10 03:44:41;;;;;;;0.70;0.60;;;9.70;99.90;;;;;;5023179;28;20207;-85
2023/11/10 03:47:07;;;;;;;0.70;0.50;;;9.60;99.90;;;;;;5051279;28;20183;-85
2023/11/10 03:49:34;;;;;;;0.60;0.50;;;10.20;99.90;;;;;;5032730;28;20273;-86
2023/11/10 03:52:00;;;;;;;0.70;0.50;;;9.80;99.90;;;;;;5031587;28;20189;-86
2023/11/10 03:54:29;;;;;;;0.70;0.50;;;9.80;99.90;;;;;;5032600;28;20201;-86
2023/11/10 03:56:54;;;;;;;0.80;0.50;;;9.60;99.90;;;;;;5057299;28;20400;-86
2023/11/10 03:59:20;;;;;;;1.30;0.70;;;9.80;99.90;;;;;;5039455;28;20183;-86
2023/11/10 04:01:45;;;;;;;0.60;0.50;;;9.70;99.90;;;;;;5027577;28;20190;-86
2023/11/10 04:04:11;;;;;;;0.60;0.40;;;9.60;99.90;;;;;;5034512;28;20218;-86
2023/11/10 04:06:36;;;;;;;0.60;0.53;;;9.90;99.90;;;;;;5031091;28;20179;-86
2023/11/10 04:09:03;;;;;;;0.70;0.60;;;9.70;99.90;;;;;;5031005;28;20186;-86
2023/11/10 04:11:29;;;;;;;1.20;0.50;;;9.60;99.90;;;;;;5026604;28;20319;-86
2023/11/10 04:13:56;;;;;;;1.08;0.60;;;9.80;99.90;;;;;;5035665;28;20214;-86
2023/11/10 04:16:23;;;;;;;0.70;0.60;;;10.20;99.90;;;;;;5033418;28;20179;-86
2023/11/10 04:18:49;;;;;;;0.95;0.60;;;9.70;99.90;;;;;;5034804;28;20701;-86
2023/11/10 04:21:17;;;;;;;1.00;0.60;;;10.00;99.90;;;;;;5033785;28;20191;-86
2023/11/10 04:23:43;;;;;;;0.85;0.57;;;9.60;99.90;;;;;;5033767;28;20210;-86
2023/11/10 04:26:09;;;;;;;1.43;0.60;;;10.00;99.90;;;;;;5033854;28;20552;-86
2023/11/10 04:28:38;;;;;;;1.17;0.70;;;9.40;99.90;;;;;;5029192;28;20706;-86
2023/11/10 04:31:04;;;;;;;0.70;0.57;;;10.00;99.90;;;;;;5033488;28;20290;-86
2023/11/10 04:33:29;;;;;;;0.70;0.60;;;9.60;99.90;;;;;;5035042;28;20293;-86
2023/11/10 04:35:58;;;;;;;0.60;0.40;;;9.90;99.90;;;;;;5064120;28;20190;-86
2023/11/10 04:38:25;;;;;;;1.20;0.60;;;10.10;99.90;;;;;;5044247;28;20188;-86
2023/11/10 04:40:52;;;;;;;0.70;0.55;;;10.30;99.90;;;;;;5043648;28;20264;-86
2023/11/10 04:43:18;;;;;;;1.15;0.60;;;9.60;99.90;;;;;;5037277;28;20564;-85
2023/11/10 04:45:44;;;;;;;0.60;0.50;;;10.10;99.90;;;;;;5032617;28;20261;-86
2023/11/10 04:48:10;;;;;;;0.60;0.40;;;9.80;99.90;;;;;;5035090;28;21400;-86
2023/11/10 04:50:38;;;;;;;0.90;0.60;;;9.50;99.90;;;;;;5028777;28;20712;-86
2023/11/10 04:53:03;;;;;;;0.60;0.40;;;9.60;99.90;;;;;;5035539;28;20202;-86
2023/11/10 04:55:29;;;;;;;0.70;0.50;;;9.50;99.90;;;;;;5035455;28;20195;-85
2023/11/10 04:57:55;;;;;;;0.60;0.50;;;10.10;99.90;;;;;;5029669;28;20255;-86
2023/11/10 05:00:23;;;;;;;1.27;0.40;;;9.60;99.90;;;;;;5048290;28;20247;-86
2023/11/10 05:02:49;;;;;;;0.70;0.50;;;9.70;99.90;;;;;;5051322;28;20258;-86
2023/11/10 05:05:15;;;;;;;0.60;0.50;;;9.70;99.90;;;;;;5032269;28;20241;-86
2023/11/10 05:07:41;;;;;;;0.60;0.43;;;9.40;99.90;;;;;;5039030;28;20178;-86
2023/11/10 05:10:08;;;;;;;0.63;0.50;;;9.60;99.90;;;;;;5034106;28;20205;-86
2023/11/10 05:12:37;;;;;;;0.60;0.50;;;9.90;99.90;;;;;;5030731;28;20239;-86
2023/11/10 05:15:07;;;;;;;0.70;0.40;;;9.50;99.90;;;;;;5035577;28;20210;-86
2023/11/10 05:17:40;;;;;;;0.50;0.40;;;9.50;99.90;;;;;;5074603;28;20175;-84
2023/11/10 05:20:13;;;;;;;0.60;0.40;;;9.40;99.90;;;;;;5048383;28;20182;-86
2023/11/10 05:22:41;;;;;;;0.85;0.60;;;9.70;99.90;;;;;;5033129;28;20178;-86
2023/11/10 05:25:10;;;;;;;0.60;0.40;;;9.40;99.90;;;;;;5037575;28;20229;-86
2023/11/10 05:27:37;;;;;;;0.98;0.77;;;9.40;99.90;;;;;;5037245;28;20530;-85
2023/11/10 05:30:04;;;;;;;0.60;0.50;;;9.60;99.90;;;;;;5033179;28;20626;-85
2023/11/10 05:32:31;;;;;;;0.60;0.40;;;9.50;99.90;;;;;;5036109;28;20551;-86
2023/11/10 05:34:58;;;;;;;0.60;0.43;;;10.00;99.90;;;;;;5037523;28;20186;-86
2023/11/10 05:37:24;;;;;;;0.60;0.40;;;9.10;99.90;;;;;;5033621;28;20191;-90
2023/11/10 05:39:51;;;;;;;0.70;0.50;;;9.40;99.90;;;;;;5032036;28;20205;-90
2023/11/10 05:42:17;;;;;;;2.63;0.45;;;9.40;99.90;;;;;;5054248;28;20197;-89
2023/11/10 05:44:44;;;;;;;0.75;0.50;;;9.50;99.90;;;;;;5047172;28;20250;-89
2023/11/10 05:47:10;;;;;;;0.70;0.57;;;9.40;99.90;;;;;;5048570;28;20213;-89
2023/11/10 05:49:36;;;;;;;1.23;0.60;;;9.40;99.90;;;;;;5042907;28;20185;-91
2023/11/10 05:52:03;;;;;;;0.90;0.60;;;9.20;99.90;;;;;;5032340;28;20448;-89
2023/11/10 05:54:29;;;;;;;0.60;0.50;;;9.30;99.90;;;;;;5040218;28;20583;-93
2023/11/10 05:56:54;;;;;;;0.63;0.50;;;9.50;99.90;;;;;;5056135;28;20178;-90
2023/11/10 05:59:21;;;;;;;0.70;0.50;;;9.30;99.90;;;;;;5052620;28;20480;-91
2023/11/10 06:01:50;;;;;;;0.60;0.40;;;11.10;99.90;;;;;;5019567;28;20202;-90
2023/11/10 06:04:16;;;;;;;0.60;0.40;;;9.10;99.90;;;;;;5032327;28;20228;-90
2023/11/10 06:06:46;;;;;;;0.50;0.40;;;9.00;99.90;;;;;;5030074;28;20666;-91
2023/11/10 06:09:13;;;;;;;0.60;0.40;;;10.70;99.90;;;;;;5046524;28;20170;-87
2023/11/10 06:11:39;;;;;;;1.00;0.55;;;8.40;99.90;;;;;;5051838;28;20236;-87
2023/11/10 06:14:05;;;;;;;0.50;0.40;;;8.50;99.90;;;;;;5038297;28;20249;-88
2023/11/10 06:16:32;;;;;;;0.68;0.50;;;10.10;99.90;;;;;;5037182;28;20197;-88
2023/11/10 06:18:57;;;;;;;0.70;0.60;;;9.20;99.90;;;;;;5041993;28;20178;-88
2023/11/10 06:21:24;;;;;;;0.60;0.50;;;9.20;99.90;;;;;;5046714;28;20182;-88
2023/11/10 06:23:50;;;;;;;0.70;0.57;;;9.10;99.90;;;;;;5027975;28;20308;-88
2023/11/10 06:26:17;;;;;;;0.80;0.50;;;8.40;99.90;;;;;;5036754;28;20261;-87
2023/11/10 06:28:43;;;;;;;0.80;0.80;;;9.00;99.90;;;;;;5035778;28;20770;-88
2023/11/10 06:31:10;;;;;;;0.60;0.50;;;9.10;99.90;;;;;;5033317;28;20182;-88
2023/11/10 06:33:39;;;;;;;0.80;0.50;;;;;;;;;;5031621;28;20207;-88
2023/11/10 06:36:05;;;;;;;0.70;0.50;;;9.30;99.90;;;;;;5036802;28;20186;-88
2023/11/10 06:38:38;;;;;;;0.60;0.60;;;9.50;99.90;;;;;;5035860;28;20268;-87
2023/11/10 06:41:03;;;;;;;1.33;1.23;;;10.00;99.90;;;;;;5033025;28;20457;-88
2023/11/10 06:43:32;;;;;;;1.00;0.90;;;10.10;99.90;;;;;;5041589;28;20198;-88
2023/11/10 06:45:57;;;;;;;0.80;0.50;;;10.40;99.90;;;;;;5039233;28;20236;-88
2023/11/10 06:48:23;;;;;;;0.90;0.67;;;9.80;99.90;;;;;;5044222;28;20187;-89
2023/11/10 06:50:49;;;;;;;3.43;0.50;;;9.00;99.90;;;;;;5021151;28;20196;-89
2023/11/10 06:53:15;;;;;;;1.55;0.60;;;9.30;99.90;;;;;;5034566;28;20205;-89
2023/11/10 06:55:40;;;;;;;1.10;0.70;;;8.20;99.90;;;;;;5034616;28;20186;-89
2023/11/10 06:58:07;;;;;;;1.20;0.67;;;9.40;99.90;;;;;;5049417;28;20198;-89
2023/11/10 07:00:33;;;;;;;0.60;0.50;;;9.30;99.90;;;;;;5036873;28;20182;-89
2023/11/10 07:03:02;;;;;;;0.93;0.60;;;9.90;99.90;;;;;;5030655;28;20209;-89
2023/11/10 07:05:29;;;;;;;0.80;0.60;;;9.70;99.90;;;;;;5033323;28;20301;-89
2023/11/10 07:07:56;;;;;;;2.05;0.50;;;9.40;99.90;;;;;;5048579;28;20543;-90
2023/11/10 07:10:22;;;;;;;0.70;0.60;;;9.40;99.90;;;;;;5036753;28;20178;-91
2023/11/10 07:12:48;;;;;;;1.05;0.63;;;9.80;99.90;;;;;;5033728;28;20206;-90
2023/11/10 07:15:13;;;;;;;0.70;0.50;;;9.80;99.90;;;;;;5032218;28;20186;-90
2023/11/10 07:17:41;;;;;;;0.70;0.60;;;9.20;99.90;;;;;;5034875;28;20257;-90
2023/11/10 07:20:10;;;;;;;0.70;0.55;;;9.40;99.90;;;;;;5021586;28;20218;-89
2023/11/10 07:22:36;;;;;;;0.90;0.60;;;9.20;99.90;;;;;;5034359;28;20182;-90
2023/11/10 07:25:03;;;;;;;0.90;0.63;;;9.30;99.90;;;;;;5033995;28;20263;-88
2023/11/10 07:27:29;;;;;;;0.80;0.52;;;9.30;99.90;;;;;;5034412;28;20642;-90
2023/11/10 07:29:54;;;;;;;1.07;0.70;;;9.30;99.90;;;;;;5039521;28;20186;-86
2023/11/10 07:32:20;;;;;;;0.90;0.70;;;9.10;99.90;;;;;;5036750;28;20183;-87
2023/11/10 07:34:46;;;;;;;6.57;0.90;;;9.10;99.90;;;;;;5036034;28;20674;-87
2023/11/10 07:37:12;;;;;;;1.00;0.88;;;9.20;99.90;;;;;;5031334;28;20193;-88
2023/11/10 07:39:39;;;;;;;0.80;0.60;;;9.20;99.90;;;;;;5036088;28;20184;-88
2023/11/10 07:42:05;;;;;;;1.35;0.77;;;9.10;99.90;;;;;;5033344;28;20192;-88
2023/11/10 07:44:31;;;;;;;0.93;0.83;;;9.00;99.90;;;;;;5033430;28;20205;-88
2023/11/10 07:46:56;;;;;;;1.13;0.70;;;9.60;99.90;;;;;;5034659;28;20423;-89
2023/11/10 07:49:22;;;;;;;1.03;0.70;;;9.10;99.90;;;;;;5035756;28;20180;-88
2023/11/10 07:51:47;;;;;;;1.10;0.60;;;9.30;99.90;;;;;;5034787;28;20193;-87
2023/11/10 07:54:17;;;;;;;0.70;0.60;;;9.30;99.90;;;;;;5034008;28;20706;-89
2023/11/10 07:56:46;;;;;;;1.55;1.40;;;9.90;99.90;;;;;;5035899;28;20528;-88
2023/11/10 07:59:12;;;;;;;1.10;0.85;;;9.30;99.90;;;;;;5033874;28;20182;-88
2023/11/10 08:01:38;;;;;;;0.73;0.60;;;9.60;99.90;;;;;;5034739;28;20190;-89
2023/11/10 08:04:03;;;;;;;0.70;0.70;;;9.90;99.90;;;;;;5036747;28;20210;-88
2023/11/10 08:06:29;;;;;;;0.60;0.50;;;9.80;99.90;;;;;;5044145;28;20173;-88
2023/11/10 08:08:55;;;;;;;0.80;0.60;;;9.60;99.90;;;;;;5052046;28;20221;-88
2023/11/10 08:11:21;;;;;;;0.68;0.52;;;10.30;99.90;;;;;;5050711;28;20200;-89
2023/11/10 08:13:47;;;;;;;3.33;0.80;;;9.90;99.90;;;;;;5030346;28;20234;-87
2023/11/10 08:16:12;;;;;;;0.60;0.50;;;10.40;99.90;;;;;;5033668;28;20191;-88
2023/11/10 08:18:38;;;;;;;0.97;0.50;;;10.40;99.90;;;;;;5034673;28;20683;-88
2023/11/10 08:21:04;;;;;;;0.70;0.60;;;10.40;99.90;;;;;;5033884;28;20190;-88
2023/11/10 08:23:29;;;;;;;1.07;0.70;;;10.40;99.90;;;;;;5050389;28;20444;-88
2023/11/10 08:25:55;;;;;;;1.20;0.60;;;10.30;99.90;;;;;;5047459;28;20278;-88
2023/11/10 08:28:21;;;;;;;1.00;0.63;;;10.10;99.90;;;;;;5030326;28;20561;-89
2023/11/10 08:30:47;;;;;;;0.90;0.60;;;10.50;99.90;;;;;;5032310;28;20186;-88
2023/11/10 08:33:13;;;;;;;1.00;0.80;;;10.30;99.90;;;;;;5040197;28;20218;-88
2023/11/10 08:35:38;;;;;;;1.00;0.73;;;10.60;99.90;;;;;;5039574;28;20222;-88
2023/11/10 08:38:04;;;;;;;0.93;0.70;;;10.60;99.90;;;;;;5039428;28;20183;-88
2023/11/10 08:40:30;;;;;;;0.88;0.73;;;10.70;99.90;;;;;;5036995;28;20246;-88
2023/11/10 08:42:57;;;;;;;0.80;0.70;;;10.60;99.90;;;;;;5033989;28;20280;-88
2023/11/10 08:45:24;;;;;;;0.80;0.68;;;10.60;99.90;;;;;;5032788;28;20208;-88
2023/11/10 08:47:51;;;;;;;1.00;0.63;;;11.00;99.90;;;;;;5034063;28;20179;-88
2023/11/10 08:50:16;;;;;;;1.45;0.70;;;10.90;99.90;;;;;;5033846;28;20191;-88
2023/11/10 08:52:46;;;;;;;1.03;0.70;;;10.80;99.90;;;;;;5041920;28;20194;-87
2023/11/10 08:55:13;;;;;;;0.90;0.60;;;11.20;99.90;;;;;;5035501;28;20670;-88
2023/11/10 08:57:39;;;;;;;1.05;0.70;;;10.80;99.90;;;;;;5033587;28;20187;-89
2023/11/10 09:00:09;;;;;;;0.80;0.70;;;11.20;99.90;;;;;;5036646;28;20190;-88
2023/11/10 09:02:41;;;;;;;0.90;0.60;;;11.40;99.90;;;;;;5023425;28;20590;-90
2023/11/10 09:05:09;;;;;;;0.82;0.60;;;11.70;99.90;;;;;;5037849;28;20221;-89
2023/11/10 09:07:40;;;;;;;0.90;0.63;;;11.60;99.90;;;;;;5048912;28;20213;-91
2023/11/10 09:10:06;;;;;;;0.90;0.70;;;11.60;99.90;;;;;;5021602;28;20195;-89
2023/11/10 09:12:33;;;;;;;0.70;0.60;;;11.60;99.90;;;;;;5033732;28;20176;-89
2023/11/10 09:14:59;;;;;;;1.08;0.50;;;11.20;99.90;;;;;;5036843;28;20216;-89
2023/11/10 09:17:25;;;;;;;0.60;0.50;;;11.70;99.90;;;;;;5038431;28;20186;-89
2023/11/10 09:19:53;;;;;;;0.70;0.50;;;11.80;99.90;;;;;;5037654;28;20664;-88
2023/11/10 09:22:19;;;;;;;1.08;0.55;;;12.10;99.90;;;;;;5030246;28;20212;-89
2023/11/10 09:24:47;;;;;;;0.90;0.70;;;12.20;99.90;;;;;;5029826;28;20230;-89
2023/11/10 09:27:12;;;;;;;1.10;0.57;;;12.20;99.90;;;;;;5019772;28;20463;-89
2023/11/10 09:29:40;;;;;;;1.03;0.60;;;12.80;99.90;;;;;;5037291;28;20178;-89
2023/11/10 09:32:10;;;;;;;1.15;1.05;;;12.40;99.90;;;;;;5038551;28;20188;-90
2023/11/10 09:34:41;;;;;;;1.00;0.60;;;12.10;99.90;;;;;;5042573;28;20637;-91
2023/11/10 09:40:00;;;;;;;1.75;1.05;;;12.50;99.90;;;;;;5059268;28;20677;-87
2023/11/10 09:42:26;;;;;;;1.10;0.80;;;12.30;99.90;;;;;;5036486;28;20197;-88
2023/11/10 09:44:53;;;;;;;1.43;0.80;;;13.50;99.90;;;;;;5046089;28;20224;-88
2023/11/10 09:47:21;;;;;;;1.20;0.60;;;12.80;99.90;;;;;;5051281;28;20434;-88
2023/11/10 09:49:49;;;;;;;1.83;1.20;;;12.70;99.90;;;;;;5044806;28;20182;-88
2023/11/10 09:52:16;;;;;;;1.10;0.80;;;12.90;99.90;;;;;;5062239;28;20263;-86
2023/11/10 09:54:45;;;;;;;2.20;0.90;;;12.20;99.90;;;;;;5050299;28;20200;-88
2023/11/10 09:57:12;;;;;;;1.80;0.93;;;13.50;99.90;;;;;;5038748;28;20214;-89
2023/11/10 09:59:41;;;;;;;0.90;0.90;;;12.00;99.90;;;;;;5056440;28;20197;-89
2023/11/10 10:02:11;;;;;;;0.85;0.70;;;11.70;99.90;;;;;;5055338;28;20196;-89
2023/11/10 10:04:38;;;;;;;1.55;0.90;;;12.00;99.90;;;;;;5055813;28;20209;-89
2023/11/10 10:07:05;;;;;;;0.70;0.60;;;12.10;99.90;;;;;;5054712;28;20200;-89
2023/11/10 10:09:30;;;;;;;0.70;0.60;;;11.70;99.90;;;;;;5055460;28;20158;-89
2023/11/10 10:11:57;;;;;;;0.70;0.60;;;11.70;99.90;;;;;;5037530;28;20196;-89
2023/11/10 10:14:23;;;;;;;1.83;1.25;;;11.90;99.90;;;;;;5039945;28;20316;-89
2023/11/10 10:16:56;;;;;;;1.67;0.60;;;11.20;99.90;;;;;;5034501;28;20245;-89
2023/11/10 10:19:29;;;;;;;0.70;0.60;;;11.00;99.90;;;;;;5017434;28;20199;-89
2023/11/10 10:21:59;;;;;;;1.88;0.70;;;11.20;99.90;;;;;;5059258;28;20242;-89
2023/11/10 10:24:24;;;;;;;1.05;0.77;;;11.90;99.90;;;;;;5039070;28;20648;-89
2023/11/10 10:26:51;;;;;;;0.70;0.57;;;11.00;99.90;;;;;;5045155;28;20203;-87
2023/11/10 10:29:18;;;;;;;1.70;0.68;;;11.10;99.90;;;;;;5040576;28;20449;-89
2023/11/10 10:31:45;;;;;;;0.80;0.70;;;12.70;99.90;;;;;;5057713;28;20231;-89
2023/11/10 10:34:11;;;;;;;0.98;0.60;;;11.10;99.90;;;;;;5039081;28;20214;-89
2023/11/10 10:36:38;;;;;;;0.90;0.80;;;10.70;99.90;;;;;;5040046;28;20202;-89
2023/11/10 10:39:11;;;;;;;0.88;0.60;;;12.20;99.90;;;;;;5045582;28;20471;-89
2023/11/10 10:41:42;;;;;;;1.50;0.75;;;12.00;99.90;;;;;;5060831;28;20178;-89
2023/11/10 10:44:12;;;;;;;1.30;0.68;;;12.60;99.90;;;;;;5056033;28;20251;-87
2023/11/10 10:46:43;;;;;;;1.63;0.70;;;12.90;99.40;;;;;;5035355;28;20182;-90
2023/11/10 10:49:12;;;;;;;1.60;0.75;;;13.20;99.10;;;;;;5036287;28;20189;-89
2023/11/10 10:51:38;;;;;;;1.00;0.80;;;13.30;97.70;;;;;;5032489;28;20177;-91
2023/11/10 10:54:08;;;;;;;2.88;0.80;;;14.30;98.30;;;;;;5039852;28;20209;-89
2023/11/10 10:56:35;;;;;;;2.63;0.75;;;13.60;97.60;;;;;;5034754;28;20238;-87
2023/11/10 10:59:02;;;;;;;0.80;0.50;;;13.50;97.40;;;;;;5028876;28;20319;-89
2023/11/10 11:01:27;;;;;;;1.52;1.20;;;15.00;98.10;;;;;;5038694;28;20189;-89
2023/11/10 11:04:24;;;;;;;4.60;1.83;;;12.60;97.50;;;;;;5033951;28;20212;-89
2023/11/10 11:07:14;;;;;;;4.57;3.25;;;12.70;98.10;;;;;;5047075;28;20191;-89
2023/11/10 11:10:23;;;;;;;1.20;0.70;;;12.30;98.70;;;;;;5037058;28;20671;-89
2023/11/10 11:13:42;;;;;;;0.80;0.60;;;12.50;98.50;;;;;;5031460;28;21000;-89
2023/11/10 11:16:33;;;;;;;0.80;0.60;;;12.50;98.00;;;;;;5045713;28;20195;-87
2023/11/10 11:19:19;;;;;;;0.70;0.50;;;12.50;98.20;;;;;;5040298;28;20181;-87
2023/11/10 11:21:48;;;;;;;0.80;0.70;;;12.20;97.70;;;;;;5051726;28;20204;-87
2023/11/10 11:24:17;;;;;;;1.17;0.60;;;12.70;97.90;;;;;;5054852;28;20213;-90
2023/11/10 11:26:58;;;;;;;5.72;0.98;;;12.70;97.70;;;;;;5026042;28;20198;-89
2023/11/10 11:29:25;;;;;;;1.52;0.90;;;12.70;96.60;;;;;;5034711;28;20196;-89
2023/11/10 11:31:52;;;;;;;1.45;0.70;;;12.60;94.90;;;;;;5032337;28;20192;-87
2023/11/10 11:34:19;;;;;;;1.40;0.70;;;12.50;94.40;;;;;;5038595;28;20196;-87
2023/11/10 11:36:46;;;;;;;1.52;0.77;;;13.80;95.20;;;;;;5020819;28;20204;-87
2023/11/10 11:39:16;;;;;;;1.00;0.60;;;13.00;94.60;;;;;;5040797;28;20554;-87
2023/11/10 11:41:53;;;;;;;0.80;0.50;;;13.00;94.20;;;;;;5038501;28;20185;-87
2023/11/10 11:44:29;;;;;;;1.25;0.70;;;12.30;93.10;;;;;;5035743;28;20221;-88
2023/11/10 11:46:56;;;;;;;1.15;0.95;;;12.00;93.70;;;;;;5035199;28;20184;-87
2023/11/10 11:49:22;;;;;;;0.90;0.80;;;12.10;94.10;;;;;;5030305;28;20224;-88
2023/11/10 11:51:49;;;;;;;0.80;0.80;;;12.70;94.30;;;;;;5050797;28;20185;-87
2023/11/10 11:54:15;;;;;;;3.10;0.80;;;12.40;94.10;;;;;;5036380;28;20210;-87
2023/11/10 11:56:42;;;;;;;1.10;0.70;;;12.00;93.80;;;;;;5032275;28;20200;-87
2023/11/10 11:59:09;;;;;;;1.27;0.90;;;12.20;93.20;;;;;;5041963;28;20169;-88
2023/11/10 12:01:38;;;;;;;0.90;0.70;;;12.60;93.70;;;;;;5070158;28;20185;-88
2023/11/10 12:04:07;;;;;;;0.80;0.65;;;13.00;94.10;;;;;;5051800;28;20224;-88
2023/11/10 12:06:35;;;;;;;1.15;0.75;;;12.60;93.30;;;;;;5048686;28;20197;-87
2023/11/10 12:09:03;;;;;;;2.88;0.70;;;11.60;92.50;;;;;;5020930;28;20477;-88
2023/11/10 12:11:35;;;;;;;1.33;0.70;;;14.30;94.70;;;;;;5036394;28;20215;-88
2023/11/10 12:14:05;;;;;;;1.30;0.80;;;13.40;93.60;;;;;;5033245;28;20216;-87
2023/11/10 12:16:44;;;;;;;1.08;0.80;;;12.60;93.10;;;;;;5033406;28;20323;-88
2023/11/10 12:19:12;;;;;;;1.23;0.90;;;12.50;93.00;;;;;;5056379;28;20193;-87
2023/11/10 12:21:38;;;;;;;1.55;0.70;;;13.10;94.00;;;;;;5049299;28;20313;-87
2023/11/10 12:24:06;;;;;;;1.40;0.70;;;13.90;94.70;;;;;;5056918;28;20217;-86
2023/11/10 12:26:37;;;;;;;2.35;0.80;;;12.50;94.40;;;;;;5051172;28;20178;-88
2023/11/10 12:29:07;;;;;;;0.98;0.70;;;13.20;96.10;;;;;;5050555;28;20688;-88
2023/11/10 12:31:38;;;;;;;1.10;0.80;;;13.40;95.80;;;;;;5032979;28;20207;-87
2023/11/10 12:34:04;;;;;;;1.08;0.70;;;12.30;96.70;;;;;;5056791;28;20526;-87
2023/11/10 12:36:32;;;;;;;1.05;0.73;;;12.10;96.50;;;;;;5318212;23;20688;-87
2023/11/10 12:39:00;;;;;;;2.85;0.90;;;13.00;94.90;;;;;;5051026;28;20199;-88
2023/11/10 12:41:26;;;;;;;1.58;1.08;;;11.90;95.80;;;;;;5031849;28;20189;-86
2023/11/10 12:43:57;;;;;;;0.98;0.70;;;13.60;96.00;;;;;;5034718;28;20213;-88
2023/11/10 12:46:23;;;;;;;1.30;1.10;;;13.40;95.30;;;;;;5065885;28;20199;-88
2023/11/10 12:49:07;;;;;;;7.43;5.43;;;12.20;95.50;;;;;;5054416;28;20182;-87
2023/11/10 12:51:48;;;;;;;4.28;2.30;;;14.10;96.70;;;;;;5057183;28;20263;-89
2023/11/10 12:54:16;;;;;;;0.85;0.70;;;13.40;96.50;;;;;;5051878;28;20272;-89
2023/11/10 13:00:34;;;;;;;;;;;;;;;;;;;;;